Time;durP1;ratioP1;P1;durP2;ratioP2;P2;SDS_P1;SDS_P2;PMS_P1;PMS_P2;Temp;Humidity;BMP_temperature;BMP_pressure;BME280_temperature;BME280_humidity;BME280_pressure;Samples;Min_cycle;Max_cycle;Signal;HPM_P1;HPM_P2
2023/01/08 00:03:46;;;;;;;3.42;2.03;;;11.40;99.90;;;;;;10133433;28;20495;-72
2023/01/08 00:08:37;;;;;;;3.50;1.95;;;11.40;99.90;;;;;;10131999;28;20032;-73
2023/01/08 00:13:28;;;;;;;3.15;2.00;;;11.30;99.90;;;;;;10130429;28;20029;-72
2023/01/08 00:18:19;;;;;;;5.05;1.90;;;11.30;99.90;;;;;;10134037;28;20040;-74
2023/01/08 00:23:11;;;;;;;5.05;2.38;;;11.30;99.90;;;;;;10136990;28;20052;-74
2023/01/08 00:28:02;;;;;;;3.63;1.77;;;11.30;99.90;;;;;;10136606;28;20093;-74
2023/01/08 00:32:52;;;;;;;5.43;2.17;;;11.20;99.90;;;;;;10136336;28;20078;-77
2023/01/08 00:37:43;;;;;;;1.92;1.70;;;11.20;99.90;;;;;;10135876;28;20131;-75
2023/01/08 00:42:34;;;;;;;3.67;2.45;;;11.20;99.90;;;;;;10148564;28;20020;-72
2023/01/08 00:47:24;;;;;;;2.17;1.67;;;11.20;99.90;;;;;;10145754;28;20029;-71
2023/01/08 00:52:15;;;;;;;3.92;1.85;;;11.30;99.90;;;;;;10149358;28;20051;-71
2023/01/08 00:57:06;;;;;;;2.90;1.83;;;11.30;99.90;;;;;;10149116;28;20068;-72
2023/01/08 01:01:56;;;;;;;3.33;1.80;;;11.30;99.90;;;;;;10149440;28;20116;-71
2023/01/08 01:06:47;;;;;;;4.00;1.63;;;11.30;99.90;;;;;;10147257;28;20283;-72
2023/01/08 01:11:37;;;;;;;2.88;1.80;;;11.30;99.90;;;;;;10148076;28;20235;-72
2023/01/08 01:16:28;;;;;;;3.38;1.80;;;11.30;99.90;;;;;;10148403;28;20111;-73
2023/01/08 01:21:24;;;;;;;3.65;2.00;;;11.40;99.90;;;;;;10150094;28;20057;-71
2023/01/08 01:26:17;;;;;;;2.40;1.55;;;11.40;99.90;;;;;;10147972;28;20033;-71
2023/01/08 01:31:11;;;;;;;3.22;1.70;;;11.40;99.90;;;;;;10148029;28;20115;-72
2023/01/08 01:36:02;;;;;;;2.35;1.70;;;11.40;99.90;;;;;;10148101;28;20028;-73
2023/01/08 01:40:53;;;;;;;2.40;1.67;;;11.40;99.90;;;;;;10148183;28;20017;-72
2023/01/08 01:45:43;;;;;;;1.90;1.30;;;11.50;99.90;;;;;;10147688;28;20074;-73
2023/01/08 01:50:45;;;;;;;2.78;1.48;;;11.50;99.90;;;;;;10143457;28;20467;-70
2023/01/08 01:55:39;;;;;;;3.47;1.60;;;11.50;99.90;;;;;;10141796;28;20041;-71
2023/01/08 02:00:31;;;;;;;2.17;1.55;;;11.40;99.90;;;;;;10141538;28;20264;-71
2023/01/08 02:05:26;;;;;;;2.22;1.60;;;11.40;99.90;;;;;;10144317;28;20051;-70
2023/01/08 02:10:29;;;;;;;2.25;1.38;;;11.40;99.90;;;;;;10144616;28;20020;-72
2023/01/08 02:15:31;;;;;;;3.15;1.75;;;11.50;99.90;;;;;;10137622;28;20075;-71
2023/01/08 02:20:34;;;;;;;3.75;1.75;;;11.40;99.90;;;;;;10132137;28;20072;-72
2023/01/08 02:26:02;;;;;;;8.50;1.58;;;11.50;99.90;;;;;;10140625;28;20025;-73
2023/01/08 02:30:54;;;;;;;3.70;1.80;;;11.50;99.90;;;;;;10138865;28;20116;-72
2023/01/08 02:36:09;;;;;;;3.38;1.45;;;11.50;99.90;;;;;;10141824;28;20036;-74
2023/01/08 02:41:07;;;;;;;2.35;1.38;;;11.50;99.90;;;;;;10140053;28;20055;-73
2023/01/08 02:46:01;;;;;;;2.08;1.60;;;11.50;99.90;;;;;;10137145;28;20036;-73
2023/01/08 02:51:00;;;;;;;2.67;1.70;;;11.50;99.90;;;;;;10136879;28;20024;-71
2023/01/08 02:55:58;;;;;;;2.92;1.90;;;11.60;99.90;;;;;;10138889;28;20185;-71
2023/01/08 03:00:50;;;;;;;3.20;1.67;;;11.60;99.90;;;;;;10139309;28;20023;-73
2023/01/08 03:05:44;;;;;;;5.38;1.65;;;11.60;99.90;;;;;;10138330;28;20062;-73
2023/01/08 03:10:37;;;;;;;5.78;2.00;;;11.50;99.90;;;;;;10138293;28;20113;-72
2023/01/08 03:15:36;;;;;;;3.17;1.60;;;11.50;99.90;;;;;;10136026;28;20418;-71
2023/01/08 03:20:28;;;;;;;2.55;1.98;;;11.40;99.90;;;;;;10132078;28;20126;-74
2023/01/08 03:25:23;;;;;;;2.45;1.75;;;11.40;99.90;;;;;;10137553;28;20341;-75
2023/01/08 03:30:18;;;;;;;3.58;1.73;;;11.30;99.90;;;;;;10138911;28;20032;-72
2023/01/08 03:35:13;;;;;;;3.50;2.27;;;11.30;99.90;;;;;;10139419;28;20029;-74
2023/01/08 03:40:16;;;;;;;2.80;2.20;;;11.20;99.90;;;;;;10138709;28;20051;-77
2023/01/08 03:45:07;;;;;;;2.67;1.90;;;11.20;99.90;;;;;;10137511;28;20082;-77
2023/01/08 03:50:01;;;;;;;2.50;1.60;;;11.10;99.90;;;;;;10135872;28;20101;-75
2023/01/08 03:54:52;;;;;;;2.08;1.35;;;11.10;99.90;;;;;;10139729;28;20027;-77
2023/01/08 03:59:42;;;;;;;3.67;1.67;;;11.10;99.90;;;;;;10138866;28;20552;-72
2023/01/08 04:04:33;;;;;;;2.72;1.80;;;11.10;99.90;;;;;;10136662;28;20394;-75
2023/01/08 04:09:24;;;;;;;3.60;2.10;;;11.00;99.90;;;;;;10131184;28;20040;-71
2023/01/08 04:14:15;;;;;;;4.35;2.10;;;10.90;99.90;;;;;;10130519;28;20024;-75
2023/01/08 04:19:05;;;;;;;3.15;1.63;;;10.80;99.90;;;;;;10124158;28;20044;-75
2023/01/08 04:23:57;;;;;;;1.70;1.60;;;10.70;99.90;;;;;;10137514;28;20031;-77
2023/01/08 04:28:47;;;;;;;5.22;2.53;;;10.70;99.90;;;;;;10135356;28;20112;-77
2023/01/08 04:33:38;;;;;;;3.33;1.77;;;10.70;99.90;;;;;;10136843;28;20056;-78
2023/01/08 04:38:29;;;;;;;3.17;2.05;;;10.60;99.90;;;;;;10134927;28;20685;-73
2023/01/08 04:43:19;;;;;;;3.50;1.83;;;10.60;99.90;;;;;;10133024;28;20086;-71
2023/01/08 04:48:10;;;;;;;2.67;1.73;;;10.60;99.90;;;;;;10132624;28;20032;-72
2023/01/08 04:53:00;;;;;;;2.25;1.88;;;10.60;99.90;;;;;;10139229;28;20434;-76
2023/01/08 04:57:51;;;;;;;3.22;1.75;;;10.60;99.90;;;;;;10135451;28;20056;-75
2023/01/08 05:02:42;;;;;;;2.22;1.73;;;10.50;99.90;;;;;;10134285;28;20036;-75
2023/01/08 05:07:32;;;;;;;2.15;1.65;;;10.60;99.90;;;;;;10140028;28;20148;-74
2023/01/08 05:12:23;;;;;;;2.17;1.65;;;10.50;99.90;;;;;;10136432;28;20024;-76
2023/01/08 05:17:14;;;;;;;2.10;1.30;;;10.60;99.90;;;;;;10131502;28;20040;-74
2023/01/08 05:22:04;;;;;;;3.03;1.60;;;10.60;99.90;;;;;;10129290;28;20560;-75
2023/01/08 05:26:56;;;;;;;2.72;1.52;;;10.70;99.90;;;;;;10135768;28;20060;-74
2023/01/08 05:31:47;;;;;;;3.13;1.67;;;10.60;99.90;;;;;;10142653;28;20024;-74
2023/01/08 05:36:37;;;;;;;2.80;1.67;;;10.60;99.90;;;;;;10144406;28;20043;-75
2023/01/08 05:41:28;;;;;;;3.70;1.70;;;10.60;99.90;;;;;;10144967;28;20054;-72
2023/01/08 05:46:19;;;;;;;3.03;1.90;;;10.60;99.90;;;;;;10139972;28;20081;-72
2023/01/08 05:51:09;;;;;;;2.08;1.55;;;10.60;99.90;;;;;;10139085;28;20020;-72
2023/01/08 05:56:02;;;;;;;1.98;1.20;;;10.60;99.90;;;;;;10140077;28;20047;-71
2023/01/08 06:00:53;;;;;;;2.55;1.27;;;10.60;99.90;;;;;;10141357;28;20209;-72
2023/01/08 06:05:44;;;;;;;1.98;1.13;;;10.50;99.90;;;;;;10138325;28;20503;-72
2023/01/08 06:10:37;;;;;;;2.75;1.27;;;10.60;99.90;;;;;;10140961;28;20055;-74
2023/01/08 06:15:27;;;;;;;1.40;1.10;;;10.70;99.90;;;;;;10140250;28;20036;-73
2023/01/08 06:20:18;;;;;;;2.42;1.25;;;10.60;99.90;;;;;;10128856;28;20052;-78
2023/01/08 06:25:09;;;;;;;1.60;1.15;;;10.60;99.90;;;;;;10139989;28;20098;-75
2023/01/08 06:29:59;;;;;;;1.67;1.17;;;10.50;99.90;;;;;;10138617;28;20028;-75
2023/01/08 06:34:50;;;;;;;2.25;1.23;;;10.40;99.90;;;;;;10140976;28;20076;-77
2023/01/08 06:39:41;;;;;;;2.15;1.40;;;10.40;99.90;;;;;;10138777;28;20062;-77
2023/01/08 06:44:31;;;;;;;2.55;1.77;;;10.40;99.90;;;;;;10135362;28;20020;-77
2023/01/08 06:49:22;;;;;;;1.40;1.10;;;10.40;99.90;;;;;;10138922;28;20028;-78
2023/01/08 06:54:13;;;;;;;1.30;0.95;;;10.40;99.90;;;;;;10141901;28;20024;-73
2023/01/08 06:59:03;;;;;;;1.50;1.00;;;10.40;99.90;;;;;;10142781;28;20494;-73
2023/01/08 07:03:55;;;;;;;3.35;1.75;;;10.40;99.90;;;;;;10143841;28;20028;-73
2023/01/08 07:08:46;;;;;;;2.85;1.27;;;10.40;99.90;;;;;;10141720;28;20054;-77
2023/01/08 07:13:36;;;;;;;1.38;1.00;;;10.40;99.90;;;;;;10139305;28;20021;-77
2023/01/08 07:18:27;;;;;;;2.72;1.65;;;10.40;99.90;;;;;;10127803;28;20032;-78
2023/01/08 07:23:17;;;;;;;1.58;1.25;;;10.40;99.90;;;;;;10138206;28;20118;-76
2023/01/08 07:28:11;;;;;;;5.03;1.65;;;10.30;99.90;;;;;;10136038;28;20044;-76
2023/01/08 07:33:02;;;;;;;2.13;1.55;;;10.30;99.90;;;;;;10135936;28;20423;-75
2023/01/08 07:37:53;;;;;;;2.40;1.60;;;10.30;99.90;;;;;;10137464;28;20036;-76
2023/01/08 07:42:43;;;;;;;3.15;1.15;;;10.30;99.90;;;;;;10137312;28;20646;-76
2023/01/08 07:47:34;;;;;;;2.00;1.42;;;10.30;99.90;;;;;;10132468;28;20138;-72
2023/01/08 07:52:25;;;;;;;3.00;1.42;;;10.40;99.90;;;;;;10136635;28;20025;-73
2023/01/08 07:57:16;;;;;;;1.58;1.25;;;10.30;99.90;;;;;;10137141;28;20505;-73
2023/01/08 08:02:09;;;;;;;1.92;1.02;;;10.30;99.90;;;;;;10137206;28;20062;-78
2023/01/08 08:06:59;;;;;;;1.95;1.35;;;10.30;99.90;;;;;;10138265;28;20469;-71
2023/01/08 08:11:50;;;;;;;3.65;1.33;;;10.40;99.90;;;;;;10133492;28;20029;-73
2023/01/08 08:16:40;;;;;;;3.40;1.92;;;10.30;99.90;;;;;;10129758;28;20333;-74
2023/01/08 08:21:31;;;;;;;3.30;2.10;;;10.10;99.90;;;;;;10124952;28;20037;-73
2023/01/08 08:26:22;;;;;;;4.47;1.80;;;10.10;99.90;;;;;;10124095;28;20469;-73
2023/01/08 08:31:13;;;;;;;2.38;1.55;;;10.00;99.90;;;;;;10136139;28;20047;-76
2023/01/08 08:36:04;;;;;;;2.50;1.80;;;10.00;99.90;;;;;;10134777;28;20560;-72
2023/01/08 08:40:54;;;;;;;2.58;1.60;;;10.00;99.90;;;;;;10135933;28;20099;-76
2023/01/08 08:45:45;;;;;;;2.78;2.25;;;10.10;99.90;;;;;;10133685;28;20102;-77
2023/01/08 08:50:36;;;;;;;4.00;1.48;;;10.10;99.90;;;;;;10133467;28;20125;-72
2023/01/08 08:55:28;;;;;;;4.43;2.10;;;10.10;99.90;;;;;;10134391;28;20032;-73
2023/01/08 09:00:18;;;;;;;4.10;2.28;;;10.20;99.90;;;;;;10135220;28;20029;-71
2023/01/08 09:05:10;;;;;;;3.85;2.22;;;10.20;99.90;;;;;;10141756;28;20492;-72
2023/01/08 09:10:01;;;;;;;3.53;1.70;;;10.20;99.90;;;;;;10140608;28;20031;-72
2023/01/08 09:14:53;;;;;;;2.60;1.60;;;10.10;99.90;;;;;;10139119;28;20577;-73
2023/01/08 09:19:44;;;;;;;2.58;1.40;;;10.20;99.90;;;;;;10138533;28;20048;-77
2023/01/08 09:24:34;;;;;;;2.20;1.55;;;10.30;99.90;;;;;;10123743;28;20024;-73
2023/01/08 09:29:25;;;;;;;3.03;1.55;;;10.30;99.90;;;;;;10139392;28;20165;-75
2023/01/08 09:34:18;;;;;;;1.83;1.40;;;10.30;99.90;;;;;;10140418;28;20171;-75
2023/01/08 09:39:09;;;;;;;1.52;1.30;;;10.30;99.90;;;;;;10139901;28;20036;-75
2023/01/08 09:44:03;;;;;;;2.65;1.40;;;10.50;99.90;;;;;;10137644;28;20398;-75
2023/01/08 09:48:57;;;;;;;3.03;1.40;;;10.50;99.90;;;;;;10136166;28;20029;-75
2023/01/08 09:53:56;;;;;;;2.42;1.10;;;10.60;99.90;;;;;;10141788;28;20290;-78
2023/01/08 09:58:53;;;;;;;2.03;1.25;;;10.50;99.90;;;;;;10140182;28;20208;-73
2023/01/08 10:03:46;;;;;;;2.38;1.58;;;10.70;99.90;;;;;;10138738;28;20048;-72
2023/01/08 10:08:38;;;;;;;2.78;1.48;;;10.70;99.90;;;;;;10138975;28;20028;-72
2023/01/08 10:13:28;;;;;;;2.33;1.58;;;10.80;99.90;;;;;;10135926;28;20207;-73
2023/01/08 10:18:24;;;;;;;2.53;1.05;;;11.00;99.90;;;;;;10137567;28;20043;-73
2023/01/08 10:23:16;;;;;;;;;;;11.00;99.90;;;;;;10138364;28;20090;-73
2023/01/08 10:28:19;;;;;;;2.70;1.35;;;11.00;99.90;;;;;;10135734;28;20133;-72
2023/01/08 10:33:17;;;;;;;0.80;0.60;;;11.10;99.90;;;;;;10138284;28;20021;-72
2023/01/08 10:38:31;;;;;;;1.90;0.90;;;11.10;99.90;;;;;;10138878;28;20046;-72
2023/01/08 10:43:36;;;;;;;2.17;1.08;;;11.20;99.90;;;;;;10134787;28;20115;-73
2023/01/08 10:48:35;;;;;;;2.17;0.95;;;11.30;99.90;;;;;;10136307;28;20558;-72
2023/01/08 10:53:28;;;;;;;2.10;1.13;;;11.30;99.90;;;;;;10139775;28;20039;-73
2023/01/08 10:58:18;;;;;;;1.30;0.90;;;11.40;99.90;;;;;;10137929;28;20037;-73
2023/01/08 11:03:39;;;;;;;0.93;0.70;;;11.50;99.90;;;;;;10139518;28;20017;-72
2023/01/08 11:08:30;;;;;;;1.13;0.98;;;11.40;99.90;;;;;;10138103;28;20044;-71
2023/01/08 11:13:21;;;;;;;2.15;0.90;;;11.30;99.90;;;;;;10136793;28;20021;-73
2023/01/08 11:18:23;;;;;;;1.27;1.08;;;11.30;99.90;;;;;;10129309;28;20507;-72
2023/01/08 11:23:14;;;;;;;1.30;0.90;;;11.50;99.90;;;;;;10137774;28;20040;-72
2023/01/08 11:28:05;;;;;;;2.15;1.88;;;11.70;99.90;;;;;;10137253;28;20037;-72
2023/01/08 11:33:12;;;;;;;1.80;0.80;;;11.70;99.90;;;;;;10138070;28;20394;-74
2023/01/08 11:38:05;;;;;;;1.27;0.70;;;11.70;99.90;;;;;;10139684;28;20036;-74
2023/01/08 11:43:17;;;;;;;1.48;0.80;;;11.70;99.90;;;;;;10134934;28;20043;-72
2023/01/08 11:48:10;;;;;;;1.95;0.75;;;11.70;99.90;;;;;;10133185;28;20244;-75
2023/01/08 11:53:10;;;;;;;1.38;0.90;;;11.60;99.90;;;;;;10136675;28;20036;-74
2023/01/08 11:58:12;;;;;;;0.73;0.65;;;11.60;99.90;;;;;;10137706;28;20080;-73
2023/01/08 12:03:30;;;;;;;2.47;1.00;;;11.50;99.90;;;;;;10136057;28;20055;-71
2023/01/08 12:08:33;;;;;;;0.90;0.80;;;11.40;99.90;;;;;;10136710;28;20027;-75
2023/01/08 12:13:42;;;;;;;1.92;0.98;;;11.50;99.90;;;;;;10130473;28;20012;-76
2023/01/08 12:18:44;;;;;;;1.83;0.68;;;11.50;99.90;;;;;;10131060;28;20044;-73
2023/01/08 12:23:57;;;;;;;1.17;0.57;;;11.50;99.90;;;;;;10136686;28;20048;-72
2023/01/08 12:29:13;;;;;;;0.68;0.60;;;11.60;99.90;;;;;;10134546;28;20066;-73
2023/01/08 12:34:13;;;;;;;;;;;11.60;99.90;;;;;;10136336;28;20024;-73
2023/01/08 12:39:11;;;;;;;0.45;0.32;;;11.50;99.90;;;;;;10152130;28;20007;-73
2023/01/08 12:44:04;;;;;;;3.53;0.77;;;11.50;99.90;;;;;;10129518;28;20279;-74
2023/01/08 12:48:55;;;;;;;0.98;0.60;;;11.50;99.90;;;;;;10126051;28;20477;-71
2023/01/08 12:53:56;;;;;;;1.48;0.85;;;11.50;99.90;;;;;;10136157;28;20115;-72
2023/01/08 12:59:08;;;;;;;1.05;0.63;;;11.60;99.90;;;;;;10133840;28;20036;-71
2023/01/08 13:04:00;;;;;;;1.77;1.33;;;11.80;99.90;;;;;;10134196;28;20133;-69
2023/01/08 13:08:54;;;;;;;1.45;0.60;;;11.80;99.90;;;;;;10129330;28;20039;-72
2023/01/08 13:13:44;;;;;;;1.40;0.82;;;11.90;99.90;;;;;;10125070;28;20017;-73
2023/01/08 13:18:36;;;;;;;1.08;0.70;;;11.90;99.90;;;;;;10130581;28;20441;-72
2023/01/08 13:23:33;;;;;;;1.02;0.68;;;11.80;99.90;;;;;;10136077;28;20499;-73
2023/01/08 13:28:38;;;;;;;0.60;0.50;;;11.80;99.90;;;;;;10129612;28;20036;-70
2023/01/08 13:33:34;;;;;;;0.75;0.40;;;11.90;99.90;;;;;;10135126;28;20190;-72
2023/01/08 13:38:25;;;;;;;1.58;0.57;;;11.90;99.90;;;;;;10134360;28;20044;-73
2023/01/08 13:43:21;;;;;;;0.90;0.60;;;11.90;99.90;;;;;;10133886;28;20390;-72
2023/01/08 13:48:24;;;;;;;0.55;0.40;;;11.90;99.90;;;;;;10135052;28;20032;-71
2023/01/08 13:53:14;;;;;;;0.90;0.68;;;11.90;99.90;;;;;;10141106;28;20346;-74
2023/01/08 13:58:17;;;;;;;1.13;0.57;;;11.90;99.90;;;;;;10141514;28;20119;-72
2023/01/08 14:03:44;;;;;;;0.80;0.50;;;11.90;99.90;;;;;;10141256;28;20024;-71
2023/01/08 14:08:34;;;;;;;2.65;0.57;;;11.80;99.90;;;;;;10134981;28;20071;-71
2023/01/08 14:13:30;;;;;;;0.65;0.40;;;11.80;99.90;;;;;;10139047;28;20124;-70
2023/01/08 14:18:21;;;;;;;0.68;0.40;;;11.70;99.90;;;;;;10140191;28;20043;-75
2023/01/08 14:23:26;;;;;;;0.75;0.50;;;11.90;99.90;;;;;;10140976;28;20048;-78
2023/01/08 14:28:19;;;;;;;1.05;0.70;;;11.80;99.90;;;;;;10140484;28;20115;-73
2023/01/08 14:33:12;;;;;;;1.88;0.60;;;11.70;99.90;;;;;;10144734;28;20027;-71
2023/01/08 14:38:04;;;;;;;1.10;0.60;;;11.70;99.90;;;;;;10139179;28;20045;-73
2023/01/08 14:42:56;;;;;;;2.33;0.55;;;11.60;99.90;;;;;;10139129;28;20024;-74
2023/01/08 14:47:50;;;;;;;1.05;0.55;;;11.60;99.90;;;;;;10139067;28;20020;-74
2023/01/08 14:52:40;;;;;;;0.55;0.45;;;11.70;99.90;;;;;;10139639;28;20024;-73
2023/01/08 14:57:31;;;;;;;1.08;0.40;;;11.70;99.90;;;;;;10139208;28;20185;-72
2023/01/08 15:02:27;;;;;;;1.38;0.70;;;11.60;99.90;;;;;;10138466;28;20043;-73
2023/01/08 15:07:24;;;;;;;0.85;0.50;;;11.60;99.90;;;;;;10138810;28;20028;-74
2023/01/08 15:12:32;;;;;;;1.20;0.60;;;11.60;99.90;;;;;;10131600;28;20134;-73
2023/01/08 15:17:25;;;;;;;2.42;1.13;;;11.50;99.90;;;;;;10138667;28;20050;-74
2023/01/08 15:22:25;;;;;;;5.00;1.38;;;11.60;99.90;;;;;;10137649;28;20465;-65
2023/01/08 15:27:18;;;;;;;2.13;1.17;;;11.60;99.90;;;;;;10133265;28;20398;-74
2023/01/08 15:32:15;;;;;;;2.65;1.25;;;11.60;99.90;;;;;;10131140;28;20442;-70
2023/01/08 15:37:06;;;;;;;1.67;1.13;;;11.70;99.90;;;;;;10133598;28;20115;-70
2023/01/08 15:47:18;;;;;;;1.00;0.70;;;11.50;99.90;;;;;;10134172;28;20545;-71
2023/01/08 15:52:08;;;;;;;1.15;0.55;;;11.40;99.90;;;;;;10136359;28;20074;-72
2023/01/08 15:56:59;;;;;;;0.77;0.40;;;11.40;99.90;;;;;;10134513;28;20043;-73
2023/01/08 16:01:50;;;;;;;2.35;0.80;;;11.40;99.90;;;;;;10140967;28;20074;-71
2023/01/08 16:06:41;;;;;;;2.15;1.20;;;11.30;99.90;;;;;;10135583;28;20037;-72
2023/01/08 16:11:31;;;;;;;4.22;1.88;;;11.30;99.90;;;;;;10134560;28;20028;-71
2023/01/08 16:16:22;;;;;;;1.83;0.85;;;11.40;99.90;;;;;;10132927;28;20039;-70
2023/01/08 16:21:13;;;;;;;1.05;0.65;;;11.30;99.90;;;;;;10133737;28;20044;-71
2023/01/08 16:26:09;;;;;;;1.45;0.75;;;11.30;99.90;;;;;;10133600;28;20017;-69
2023/01/08 16:31:00;;;;;;;2.03;0.80;;;11.20;99.90;;;;;;10137178;28;20040;-71
2023/01/08 16:35:58;;;;;;;2.75;1.23;;;11.10;99.90;;;;;;10136524;28;20036;-70
2023/01/08 16:40:49;;;;;;;1.45;0.95;;;11.10;99.90;;;;;;10134223;28;20115;-71
2023/01/08 16:45:44;;;;;;;3.03;1.27;;;11.10;99.90;;;;;;10135823;28;20444;-72
2023/01/08 16:50:35;;;;;;;;;;;11.20;99.90;;;;;;10130111;28;20028;-72
2023/01/08 16:55:26;;;;;;;1.73;0.98;;;11.20;99.90;;;;;;10133006;28;19908;-72
2023/01/08 17:00:17;;;;;;;3.30;1.65;;;11.10;99.90;;;;;;10134904;28;20502;-69
2023/01/08 17:05:08;;;;;;;1.65;1.02;;;11.10;99.90;;;;;;10130865;28;20024;-69
2023/01/08 17:09:58;;;;;;;2.97;1.30;;;11.10;99.90;;;;;;10133191;28;20016;-70
2023/01/08 17:14:49;;;;;;;3.08;1.33;;;11.00;99.90;;;;;;10132679;28;20031;-68
2023/01/08 17:19:40;;;;;;;1.58;1.15;;;11.00;99.90;;;;;;10130198;28;20067;-70
2023/01/08 17:24:30;;;;;;;1.70;1.20;;;11.00;99.90;;;;;;10138165;28;20021;-71
2023/01/08 17:29:21;;;;;;;2.10;1.40;;;11.00;99.90;;;;;;10140993;28;20021;-72
2023/01/08 17:34:12;;;;;;;4.00;1.85;;;10.90;99.90;;;;;;10140589;28;20516;-72
2023/01/08 17:39:03;;;;;;;3.10;1.35;;;10.90;99.90;;;;;;10132990;28;20415;-71
2023/01/08 17:43:54;;;;;;;1.88;1.25;;;10.90;99.90;;;;;;10141421;28;20028;-73
2023/01/08 17:48:44;;;;;;;2.22;1.30;;;10.80;99.90;;;;;;10138419;28;20114;-71
2023/01/08 17:53:35;;;;;;;2.78;1.50;;;10.90;99.90;;;;;;10141284;28;20036;-70
2023/01/08 17:58:26;;;;;;;2.60;1.67;;;10.90;99.90;;;;;;10146834;28;20024;-71
2023/01/08 18:03:16;;;;;;;3.42;1.60;;;10.90;99.90;;;;;;10139416;28;20020;-71
2023/01/08 18:08:07;;;;;;;3.20;1.80;;;11.00;99.90;;;;;;10140477;28;20028;-65
2023/01/08 18:12:59;;;;;;;2.08;1.52;;;11.00;99.90;;;;;;10141900;28;20024;-71
2023/01/08 18:17:51;;;;;;;2.10;1.20;;;11.00;99.90;;;;;;10139520;28;20033;-68
2023/01/08 18:22:44;;;;;;;1.92;1.67;;;11.00;99.90;;;;;;10138285;28;20041;-74
2023/01/08 18:27:34;;;;;;;2.92;1.67;;;11.00;99.90;;;;;;10131448;28;20048;-73
2023/01/08 18:32:25;;;;;;;5.60;1.83;;;11.00;99.90;;;;;;10133350;28;20036;-69
2023/01/08 18:37:16;;;;;;;2.42;1.50;;;11.00;99.90;;;;;;10133403;28;20028;-79
2023/01/08 18:42:25;;;;;;;3.30;1.80;;;11.00;99.90;;;;;;10139444;28;20024;-74
2023/01/08 18:47:16;;;;;;;3.72;2.13;;;10.90;99.90;;;;;;10136044;28;20020;-70
2023/01/08 18:52:07;;;;;;;2.53;2.03;;;11.00;99.90;;;;;;10136874;28;20036;-74
2023/01/08 18:56:58;;;;;;;5.55;1.70;;;10.90;99.90;;;;;;10138247;28;20093;-69
2023/01/08 19:01:48;;;;;;;2.72;2.13;;;10.90;99.90;;;;;;10137420;28;20048;-68
2023/01/08 19:06:39;;;;;;;4.55;3.22;;;10.80;99.90;;;;;;10136753;28;20033;-68
2023/01/08 19:11:29;;;;;;;3.17;2.00;;;10.80;99.90;;;;;;10136491;28;20031;-70
2023/01/08 19:16:21;;;;;;;2.80;2.10;;;10.80;99.90;;;;;;10133581;28;20044;-70
2023/01/08 19:21:13;;;;;;;3.45;1.70;;;10.80;99.90;;;;;;10135637;28;20048;-73
2023/01/08 19:26:06;;;;;;;4.68;2.60;;;10.70;99.90;;;;;;10139344;28;20445;-62
2023/01/08 19:30:58;;;;;;;2.67;1.98;;;10.70;99.90;;;;;;10136406;28;20062;-73
2023/01/08 19:35:48;;;;;;;3.90;2.55;;;10.80;99.90;;;;;;10135798;28;20033;-72
2023/01/08 19:40:39;;;;;;;4.25;2.53;;;10.70;99.90;;;;;;10135951;28;20441;-70
2023/01/08 19:45:30;;;;;;;5.88;2.33;;;10.70;99.90;;;;;;10130663;28;20024;-71
2023/01/08 19:50:22;;;;;;;5.03;1.73;;;10.70;99.90;;;;;;10140467;28;20421;-71
2023/01/08 19:55:12;;;;;;;2.97;2.10;;;10.60;99.90;;;;;;10139484;28;20087;-70
2023/01/08 20:00:04;;;;;;;3.38;2.22;;;10.70;99.90;;;;;;10135506;28;20037;-66
2023/01/08 20:04:55;;;;;;;3.28;2.15;;;10.70;99.90;;;;;;10135906;28;20044;-68
2023/01/08 20:09:45;;;;;;;3.60;2.45;;;10.70;99.90;;;;;;10137006;28;20059;-67
2023/01/08 20:14:36;;;;;;;4.05;2.50;;;10.70;99.90;;;;;;10142046;28;20021;-66
2023/01/08 20:19:30;;;;;;;4.80;2.70;;;10.70;99.90;;;;;;10136543;28;20040;-67
2023/01/08 20:24:20;;;;;;;4.93;2.63;;;10.70;99.90;;;;;;10138483;28;20062;-67
2023/01/08 20:29:13;;;;;;;4.30;2.70;;;10.70;99.90;;;;;;10119663;28;20417;-74
2023/01/08 20:34:06;;;;;;;4.72;2.80;;;10.60;99.90;;;;;;10135030;28;20028;-76
2023/01/08 20:39:00;;;;;;;5.65;3.17;;;10.70;99.90;;;;;;10142030;28;20032;-70
2023/01/08 20:43:51;;;;;;;4.32;2.78;;;10.70;99.90;;;;;;10133766;28;20107;-69
2023/01/08 20:48:42;;;;;;;4.72;2.03;;;10.60;99.90;;;;;;10131744;28;20086;-67
2023/01/08 20:53:34;;;;;;;4.22;2.30;;;10.60;99.90;;;;;;10114152;28;20562;-67
2023/01/08 20:58:25;;;;;;;4.45;2.55;;;10.60;99.90;;;;;;10137689;28;20572;-72
2023/01/08 21:03:16;;;;;;;3.17;2.33;;;10.50;99.90;;;;;;10144756;28;20016;-71
2023/01/08 21:08:07;;;;;;;5.00;2.55;;;10.60;99.90;;;;;;10143174;28;20028;-73
2023/01/08 21:12:58;;;;;;;3.53;1.90;;;10.50;99.90;;;;;;10140988;28;20033;-70
2023/01/08 21:17:49;;;;;;;3.15;2.17;;;10.40;99.90;;;;;;10142054;28;20052;-71
2023/01/08 21:22:40;;;;;;;3.20;2.17;;;10.40;99.90;;;;;;10144218;28;20036;-69
2023/01/08 21:27:31;;;;;;;2.67;2.03;;;10.40;99.90;;;;;;10135874;28;20028;-71
2023/01/08 21:32:22;;;;;;;2.20;1.60;;;10.40;99.90;;;;;;10141676;28;20043;-70
2023/01/08 21:37:14;;;;;;;4.53;2.50;;;10.40;99.90;;;;;;10143042;28;20036;-69
2023/01/08 21:47:16;;;;;;;3.95;1.60;;;10.30;99.90;;;;;;10141651;28;20094;-67
2023/01/08 21:57:17;;;;;;;3.22;1.23;;;10.30;99.90;;;;;;10139712;28;20035;-67
2023/01/08 22:02:16;;;;;;;2.60;1.38;;;10.20;99.90;;;;;;10139005;28;20027;-66
2023/01/08 22:07:06;;;;;;;2.60;0.85;;;10.30;99.90;;;;;;10138560;28;20166;-67
2023/01/08 22:11:57;;;;;;;2.08;1.25;;;10.20;99.90;;;;;;10133274;28;20613;-68
2023/01/08 22:16:48;;;;;;;1.67;1.08;;;10.20;99.90;;;;;;10137291;28;20036;-69
2023/01/08 22:21:39;;;;;;;3.33;1.00;;;10.20;99.90;;;;;;10136475;28;20036;-68
2023/01/08 22:26:31;;;;;;;2.67;1.42;;;10.10;99.90;;;;;;10134805;28;20029;-68
2023/01/08 22:31:22;;;;;;;2.58;1.17;;;10.10;99.90;;;;;;10134411;28;20471;-68
2023/01/08 22:36:13;;;;;;;1.20;0.90;;;10.10;99.90;;;;;;10136047;28;20040;-69
2023/01/08 22:41:09;;;;;;;1.40;1.02;;;10.10;99.90;;;;;;10133464;28;20024;-68
2023/01/08 22:46:00;;;;;;;;;;;10.00;99.90;;;;;;10134598;28;20041;-69
2023/01/08 22:50:51;;;;;;;0.93;0.88;;;10.00;99.90;;;;;;10136302;28;19949;-68
2023/01/08 22:55:42;;;;;;;2.55;1.08;;;10.00;99.90;;;;;;10132718;28;20478;-69
2023/01/08 23:00:34;;;;;;;2.05;1.05;;;10.00;99.90;;;;;;10136033;28;20028;-69
2023/01/08 23:05:24;;;;;;;2.10;1.20;;;10.00;99.90;;;;;;10132093;28;20021;-69
2023/01/08 23:10:15;;;;;;;1.63;0.98;;;10.00;99.90;;;;;;10134883;28;20032;-68
2023/01/08 23:15:07;;;;;;;2.33;1.38;;;10.10;99.90;;;;;;10131287;28;20544;-67
2023/01/08 23:19:57;;;;;;;3.28;1.10;;;10.10;99.90;;;;;;10135846;28;20052;-67
2023/01/08 23:24:48;;;;;;;1.63;1.00;;;10.00;99.90;;;;;;10133127;28;20536;-71
2023/01/08 23:29:38;;;;;;;2.42;1.17;;;10.10;99.90;;;;;;10136639;28;20039;-69
2023/01/08 23:34:29;;;;;;;1.63;0.88;;;10.00;99.90;;;;;;10133548;28;20062;-69
2023/01/08 23:39:20;;;;;;;0.82;0.70;;;10.00;99.90;;;;;;10136497;28;20051;-69
2023/01/08 23:44:13;;;;;;;1.13;1.02;;;10.00;99.90;;;;;;10133519;28;20107;-67
2023/01/08 23:49:06;;;;;;;2.58;0.75;;;10.00;99.90;;;;;;10134313;28;20403;-68
2023/01/08 23:53:56;;;;;;;1.00;0.90;;;10.00;99.90;;;;;;10135245;28;20119;-66
2023/01/08 23:58:48;;;;;;;1.10;0.70;;;10.00;99.90;;;;;;10135519;28;20162;-69
